createdAt,value
2022-12-29T00:02:31.600Z,30.87
2022-12-29T00:05:35.720Z,36.47
2022-12-29T00:08:41.651Z,32.50
2022-12-29T00:11:45.334Z,36.47
2022-12-29T00:15:06.473Z,37.60
2022-12-29T00:18:09.997Z,34.50
2022-12-29T00:21:34.425Z,32.50
2022-12-29T00:24:55.500Z,32.75
2022-12-29T00:28:17.349Z,36.63
2022-12-29T00:31:39.268Z,38.13
2022-12-29T00:35:00.364Z,36.37
2022-12-29T00:38:27.303Z,37.13
2022-12-29T00:41:48.406Z,38.80
2022-12-29T00:44:51.248Z,37.15
2022-12-29T00:47:53.869Z,36.53
2022-12-29T00:50:57.288Z,39.53
2022-12-29T00:54:01.347Z,40.67
2022-12-29T00:57:05.031Z,40.10
2022-12-29T01:00:09.128Z,37.58
2022-12-29T01:03:12.034Z,37.40
2022-12-29T01:06:15.489Z,36.00
2022-12-29T01:09:38.359Z,33.20
2022-12-29T01:12:46.121Z,33.15
2022-12-29T01:15:51.053Z,39.30
2022-12-29T01:18:54.541Z,33.17
2022-12-29T01:21:58.211Z,33.63
2022-12-29T01:25:02.280Z,35.83
2022-12-29T01:28:05.469Z,40.22
2022-12-29T01:31:08.885Z,35.67
2022-12-29T01:34:14.103Z,35.58
2022-12-29T01:37:16.865Z,36.70
2022-12-29T01:40:22.298Z,32.78
2022-12-29T01:43:40.345Z,32.47
2022-12-29T01:46:47.352Z,29.02
2022-12-29T01:49:50.457Z,40.25
2022-12-29T01:52:58.419Z,34.63
2022-12-29T01:56:06.927Z,32.25
2022-12-29T01:59:13.530Z,33.42
2022-12-29T02:02:18.056Z,33.03
2022-12-29T02:05:26.992Z,35.88
2022-12-29T02:08:30.938Z,31.13
2022-12-29T02:11:37.366Z,33.95
2022-12-29T02:14:40.147Z,34.13
2022-12-29T02:18:20.451Z,33.28
2022-12-29T02:21:51.104Z,31.80
2022-12-29T02:25:15.746Z,35.10
2022-12-29T02:28:56.911Z,26.40
2022-12-29T02:32:07.856Z,32.08
2022-12-29T02:35:21.203Z,28.73
2022-12-29T02:38:35.878Z,29.65
2022-12-29T02:41:50.058Z,30.83
2022-12-29T02:44:57.797Z,30.30
2022-12-29T02:48:09.548Z,27.30
2022-12-29T02:51:20.796Z,30.92
2022-12-29T02:54:42.461Z,27.77
2022-12-29T02:57:46.200Z,29.27
2022-12-29T03:01:03.331Z,27.95
2022-12-29T03:04:27.418Z,29.73
2022-12-29T03:07:37.956Z,32.00
2022-12-29T03:10:49.459Z,28.13
2022-12-29T03:14:21.467Z,29.77
2022-12-29T03:17:29.191Z,26.95
2022-12-29T03:20:42.955Z,25.63
2022-12-29T03:23:49.636Z,24.52
2022-12-29T03:26:55.403Z,25.33
2022-12-29T03:30:02.467Z,26.07
2022-12-29T03:33:11.023Z,23.88
2022-12-29T03:36:22.634Z,30.02
2022-12-29T03:39:27.279Z,23.05
2022-12-29T03:42:33.583Z,26.10
2022-12-29T03:45:36.421Z,27.87
2022-12-29T03:48:39.513Z,25.08
2022-12-29T03:51:44.458Z,24.73
2022-12-29T03:54:48.691Z,24.92
2022-12-29T03:57:51.377Z,23.33
2022-12-29T04:01:01.336Z,29.67
2022-12-29T04:04:05.534Z,22.75
2022-12-29T04:07:09.731Z,28.52
2022-12-29T04:10:12.573Z,26.52
2022-12-29T04:13:15.451Z,25.05
2022-12-29T04:16:19.572Z,20.93
2022-12-29T04:19:22.541Z,18.80
2022-12-29T04:22:27.600Z,24.50
2022-12-29T04:25:31.621Z,24.17
2022-12-29T04:28:35.704Z,24.73
2022-12-29T04:31:47.553Z,23.77
2022-12-29T04:34:50.530Z,23.60
2022-12-29T04:37:55.770Z,25.65
2022-12-29T04:41:00.510Z,25.35
2022-12-29T04:44:03.669Z,24.35
2022-12-29T04:47:24.984Z,21.50
2022-12-29T04:50:40.441Z,24.40
2022-12-29T04:53:53.029Z,20.60
2022-12-29T04:56:55.698Z,24.48
2022-12-29T04:59:58.623Z,22.88
2022-12-29T05:03:01.785Z,24.50
2022-12-29T05:06:06.037Z,27.48
2022-12-29T05:09:10.129Z,23.92
2022-12-29T05:12:12.922Z,26.92
2022-12-29T05:15:23.728Z,31.67
2022-12-29T05:18:26.692Z,23.27
2022-12-29T05:21:30.321Z,22.48
2022-12-29T05:24:35.772Z,25.60
2022-12-29T05:27:38.666Z,24.17
2022-12-29T05:31:00.057Z,24.25
2022-12-29T05:34:03.870Z,23.83
2022-12-29T05:37:07.523Z,26.27
2022-12-29T05:40:12.471Z,23.48
2022-12-29T05:43:15.822Z,23.10
2022-12-29T05:46:41.324Z,25.25
2022-12-29T05:49:52.663Z,24.43
2022-12-29T05:53:06.607Z,23.30
2022-12-29T05:56:10.896Z,22.77
2022-12-29T05:59:13.815Z,22.05
2022-12-29T06:02:17.627Z,23.73
2022-12-29T06:05:20.440Z,23.53
2022-12-29T06:08:23.119Z,27.17
2022-12-29T06:11:27.632Z,23.25
2022-12-29T06:14:33.136Z,25.90
2022-12-29T06:17:36.815Z,26.30
2022-12-29T06:20:40.164Z,25.67
2022-12-29T06:23:45.430Z,33.90
2022-12-29T06:26:49.674Z,23.42
2022-12-29T06:29:53.343Z,24.33
2022-12-29T06:32:57.169Z,29.30
2022-12-29T06:36:00.808Z,22.53
2022-12-29T06:39:04.650Z,35.10
2022-12-29T06:42:09.972Z,34.25
2022-12-29T06:45:24.922Z,36.70
2022-12-29T06:48:27.585Z,30.15
2022-12-29T06:51:30.260Z,30.47
2022-12-29T06:54:33.044Z,28.17
2022-12-29T06:57:37.315Z,26.85
2022-12-29T07:00:40.617Z,30.67
2022-12-29T07:03:44.204Z,29.25
2022-12-29T07:06:46.902Z,35.57
2022-12-29T07:09:49.708Z,30.02
2022-12-29T07:12:53.834Z,27.90
2022-12-29T07:15:56.622Z,26.13
2022-12-29T07:19:00.556Z,28.15
2022-12-29T07:22:03.541Z,29.73
2022-12-29T07:25:06.598Z,32.33
2022-12-29T07:28:11.371Z,30.05
2022-12-29T07:31:16.661Z,29.13
2022-12-29T07:34:20.102Z,25.10
2022-12-29T07:37:22.774Z,26.33
2022-12-29T07:40:25.715Z,27.75
2022-12-29T07:43:29.875Z,27.67
2022-12-29T07:46:57.725Z,27.90
2022-12-29T07:50:01.811Z,29.02
2022-12-29T07:53:04.729Z,27.07
2022-12-29T07:56:07.651Z,29.02
2022-12-29T07:59:13.148Z,31.27
2022-12-29T08:02:15.990Z,29.27
2022-12-29T08:05:19.133Z,29.40
2022-12-29T08:08:22.086Z,25.67
2022-12-29T08:11:25.018Z,30.98
2022-12-29T08:14:29.072Z,28.75
2022-12-29T08:17:31.697Z,24.48
2022-12-29T08:20:34.407Z,31.35
2022-12-29T08:23:37.151Z,25.07
2022-12-29T08:26:39.826Z,29.35
2022-12-29T08:29:43.994Z,26.20
2022-12-29T08:32:46.722Z,28.98
2022-12-29T08:35:49.502Z,27.90
2022-12-29T08:39:10.975Z,28.70
2022-12-29T08:42:13.696Z,31.27
2022-12-29T08:45:18.077Z,26.73
2022-12-29T08:48:23.123Z,29.00
2022-12-29T08:51:25.864Z,34.75
2022-12-29T08:54:28.589Z,33.50
2022-12-29T08:57:31.309Z,34.58
2022-12-29T09:00:53.857Z,29.52
2022-12-29T09:07:19.677Z,28.42
2022-12-29T09:10:22.875Z,31.60
2022-12-29T09:13:26.045Z,29.65
2022-12-29T09:16:30.189Z,30.02
2022-12-29T09:19:33.004Z,29.05
2022-12-29T09:22:35.814Z,33.28
2022-12-29T09:25:38.866Z,32.90
2022-12-29T09:28:41.701Z,30.52
2022-12-29T09:31:45.835Z,34.03
2022-12-29T09:34:48.518Z,34.40
2022-12-29T09:37:51.274Z,33.55
2022-12-29T09:40:59.666Z,28.33
2022-12-29T09:44:13.903Z,28.48
2022-12-29T09:47:19.401Z,29.65
2022-12-29T09:50:28.438Z,34.17
2022-12-29T09:53:37.184Z,33.47
2022-12-29T09:56:39.849Z,34.73
2022-12-29T09:59:45.212Z,29.55
2022-12-29T10:02:53.363Z,28.10
2022-12-29T10:06:05.853Z,30.60
2022-12-29T10:09:16.459Z,28.58
2022-12-29T10:12:27.256Z,27.83
2022-12-29T10:15:41.624Z,25.45
2022-12-29T10:19:08.125Z,33.33
2022-12-29T10:22:23.986Z,29.38
2022-12-29T10:25:32.998Z,24.17
2022-12-29T10:28:40.061Z,25.23
2022-12-29T10:31:47.308Z,25.52
2022-12-29T10:34:54.749Z,24.88
2022-12-29T10:38:03.088Z,23.38
2022-12-29T10:41:14.148Z,21.33
2022-12-29T10:44:21.173Z,25.87
2022-12-29T10:47:30.041Z,31.38
2022-12-29T10:50:34.892Z,31.52
2022-12-29T10:53:44.722Z,28.25
2022-12-29T10:56:53.092Z,33.60
2022-12-29T10:59:56.131Z,29.57
2022-12-29T11:03:36.885Z,33.28
2022-12-29T11:06:41.561Z,29.65
2022-12-29T11:09:45.684Z,31.58
2022-12-29T11:12:59.173Z,29.77
2022-12-29T11:16:03.912Z,27.93
2022-12-29T11:19:06.678Z,33.60
2022-12-29T11:22:24.265Z,35.03
2022-12-29T11:25:27.531Z,31.80
2022-12-29T11:28:32.942Z,31.30
2022-12-29T11:31:41.875Z,33.90
2022-12-29T11:34:44.616Z,29.58
2022-12-29T11:37:58.985Z,33.00
2022-12-29T11:41:04.124Z,31.83
2022-12-29T11:44:07.232Z,42.17
2022-12-29T11:47:13.335Z,38.57
2022-12-29T11:50:20.231Z,31.35
2022-12-29T11:53:52.433Z,35.78
2022-12-29T11:56:55.939Z,39.15
2022-12-29T12:00:01.433Z,32.13
2022-12-29T12:03:08.435Z,38.67
2022-12-29T12:06:15.529Z,35.33
2022-12-29T12:09:26.562Z,40.30
2022-12-29T12:12:35.110Z,35.17
2022-12-29T12:15:45.999Z,39.25
2022-12-29T12:18:54.132Z,34.00
2022-12-29T12:22:04.453Z,34.63
2022-12-29T12:25:15.274Z,35.78
2022-12-29T12:28:25.864Z,30.38
2022-12-29T12:31:45.422Z,34.03
2022-12-29T12:34:49.625Z,33.80
2022-12-29T12:38:06.365Z,30.13
2022-12-29T12:41:19.764Z,39.83
2022-12-29T12:44:32.607Z,37.08
2022-12-29T12:47:54.137Z,41.65
2022-12-29T12:51:04.675Z,35.73
2022-12-29T12:54:23.945Z,37.00
2022-12-29T12:57:41.743Z,31.45
2022-12-29T13:01:06.346Z,33.97
2022-12-29T13:04:41.366Z,33.65
2022-12-29T13:07:57.100Z,34.13
2022-12-29T13:11:09.738Z,35.28
2022-12-29T13:14:28.331Z,34.83
2022-12-29T13:17:37.519Z,31.92
2022-12-29T13:20:48.578Z,42.08
2022-12-29T13:24:01.583Z,44.03
2022-12-29T13:27:15.535Z,40.05
2022-12-29T13:30:22.379Z,43.10
2022-12-29T13:33:32.316Z,39.92
2022-12-29T13:36:38.448Z,37.25
2022-12-29T13:39:46.859Z,35.17
2022-12-29T13:42:50.150Z,45.65
2022-12-29T13:46:00.964Z,72.38
2022-12-29T13:49:09.430Z,50.63
2022-12-29T13:52:19.598Z,44.58
2022-12-29T13:55:28.744Z,40.10
2022-12-29T13:58:36.073Z,34.42
2022-12-29T14:01:44.702Z,36.53
2022-12-29T14:04:59.485Z,36.85
2022-12-29T14:08:04.028Z,38.38
2022-12-29T14:11:10.915Z,38.03
2022-12-29T14:14:22.315Z,40.67
2022-12-29T14:17:26.438Z,42.67
2022-12-29T14:20:29.451Z,43.58
2022-12-29T14:23:43.287Z,41.25
2022-12-29T14:26:46.059Z,44.00
2022-12-29T14:29:50.650Z,36.00
2022-12-29T14:33:14.205Z,41.17
2022-12-29T14:36:21.963Z,46.13
2022-12-29T14:39:33.185Z,47.00
2022-12-29T14:42:36.403Z,49.03
2022-12-29T14:45:42.977Z,50.72
2022-12-29T14:48:47.159Z,42.72
2022-12-29T14:51:53.483Z,45.03
2022-12-29T14:54:58.754Z,51.45
2022-12-29T14:58:03.245Z,61.10
2022-12-29T15:01:19.055Z,62.78
2022-12-29T15:04:31.062Z,59.70
2022-12-29T15:07:35.592Z,53.60
2022-12-29T15:10:43.634Z,53.80
2022-12-29T15:13:49.556Z,50.67
2022-12-29T15:16:53.334Z,55.00
2022-12-29T15:19:59.766Z,53.42
2022-12-29T15:23:09.863Z,59.33
2022-12-29T15:26:13.928Z,94.25
2022-12-29T15:29:36.849Z,91.27
2022-12-29T15:32:43.184Z,96.03
2022-12-29T15:35:52.651Z,94.95
2022-12-29T15:38:57.168Z,80.38
2022-12-29T15:42:07.354Z,76.00
2022-12-29T15:45:12.569Z,74.17
2022-12-29T15:48:19.365Z,69.18
2022-12-29T15:51:29.919Z,63.53
2022-12-29T15:54:33.220Z,75.00
2022-12-29T15:57:43.228Z,69.82
2022-12-29T16:01:04.981Z,62.50
2022-12-29T16:04:10.025Z,67.07
2022-12-29T16:07:27.451Z,66.72
2022-12-29T16:10:36.742Z,70.43
2022-12-29T16:13:42.026Z,74.75
2022-12-29T16:16:46.210Z,65.83
2022-12-29T16:19:51.641Z,73.43
2022-12-29T16:22:58.238Z,101.78
2022-12-29T16:26:01.244Z,110.35
2022-12-29T16:29:07.513Z,177.55
2022-12-29T16:32:31.231Z,161.43
2022-12-29T16:35:40.680Z,178.02
2022-12-29T16:38:47.327Z,184.95
2022-12-29T16:41:51.242Z,156.60
2022-12-29T16:45:20.572Z,150.20
2022-12-29T16:48:27.155Z,133.73
2022-12-29T16:51:32.987Z,115.03
2022-12-29T16:54:38.294Z,123.60
2022-12-29T16:57:45.512Z,91.10
2022-12-29T17:00:48.486Z,131.55
2022-12-29T17:03:54.788Z,137.23
2022-12-29T17:06:57.645Z,145.95
2022-12-29T17:10:01.872Z,139.05
2022-12-29T17:13:04.686Z,135.10
2022-12-29T17:16:10.446Z,134.88
2022-12-29T17:19:16.957Z,149.20
2022-12-29T17:22:25.041Z,157.90
2022-12-29T17:25:32.546Z,166.35
2022-12-29T17:28:35.344Z,167.95
2022-12-29T17:31:38.169Z,168.60
2022-12-29T17:34:41.304Z,171.50
2022-12-29T17:37:44.593Z,168.82
2022-12-29T17:40:48.965Z,154.27
2022-12-29T17:43:51.638Z,147.52
2022-12-29T17:46:54.338Z,143.50
2022-12-29T17:49:57.270Z,143.90
2022-12-29T17:53:03.478Z,145.60
2022-12-29T17:56:09.289Z,148.43
2022-12-29T17:59:14.111Z,152.90
2022-12-29T18:02:29.330Z,151.35
2022-12-29T18:05:32.395Z,162.67
2022-12-29T18:08:36.039Z,179.68
2022-12-29T18:11:41.612Z,171.45
2022-12-29T18:14:44.347Z,209.57
2022-12-29T18:17:47.478Z,194.45
2022-12-29T18:20:51.647Z,201.67
2022-12-29T18:23:54.278Z,165.45
2022-12-29T18:26:58.237Z,164.27
2022-12-29T18:30:00.831Z,176.40
2022-12-29T18:33:04.733Z,157.32
2022-12-29T18:36:12.449Z,188.43
2022-12-29T18:39:15.241Z,187.23
2022-12-29T18:42:19.268Z,193.68
2022-12-29T18:45:24.078Z,184.90
2022-12-29T18:48:28.061Z,178.18
2022-12-29T18:51:30.999Z,177.47
2022-12-29T18:54:33.933Z,187.20
2022-12-29T18:57:37.898Z,184.77
2022-12-29T19:00:40.826Z,183.18
2022-12-29T19:03:43.632Z,174.02
2022-12-29T19:06:47.058Z,169.93
2022-12-29T19:09:49.819Z,175.98
2022-12-29T19:12:54.578Z,168.75
2022-12-29T19:15:58.162Z,181.15
2022-12-29T19:19:09.430Z,180.10
2022-12-29T19:22:12.665Z,173.37
2022-12-29T19:25:15.712Z,179.32
2022-12-29T19:28:22.349Z,170.63
2022-12-29T19:31:25.294Z,169.45
2022-12-29T19:34:28.401Z,158.80
2022-12-29T19:37:31.204Z,163.37
2022-12-29T19:40:34.052Z,151.68
2022-12-29T19:43:39.174Z,144.98
2022-12-29T19:46:42.148Z,164.05
2022-12-29T19:49:44.943Z,155.15
2022-12-29T19:52:47.584Z,152.07
2022-12-29T19:55:50.313Z,152.60
2022-12-29T19:58:54.399Z,154.23
2022-12-29T20:01:57.724Z,155.93
2022-12-29T20:05:01.119Z,165.98
2022-12-29T20:08:04.075Z,149.27
2022-12-29T20:11:08.593Z,165.50
2022-12-29T20:14:12.902Z,159.93
2022-12-29T20:17:22.800Z,161.07
2022-12-29T20:20:33.050Z,150.52
2022-12-29T20:23:38.331Z,132.40
2022-12-29T20:26:41.312Z,145.20
2022-12-29T20:29:46.278Z,153.15
2022-12-29T20:32:51.405Z,144.85
2022-12-29T20:35:54.410Z,151.60
2022-12-29T20:38:58.719Z,135.77
2022-12-29T20:42:01.486Z,150.80
2022-12-29T20:45:06.430Z,152.90
2022-12-29T20:48:09.256Z,150.73
2022-12-29T20:51:12.501Z,141.77
2022-12-29T20:54:15.779Z,125.67
2022-12-29T20:57:18.479Z,114.35
2022-12-29T21:00:23.032Z,132.70
2022-12-29T21:03:25.838Z,130.25
2022-12-29T21:06:28.607Z,122.22
2022-12-29T21:09:31.409Z,109.50
2022-12-29T21:12:34.144Z,96.25
2022-12-29T21:15:38.221Z,87.50
2022-12-29T21:18:41.624Z,118.32
2022-12-29T21:21:44.300Z,110.72
2022-12-29T21:24:46.999Z,80.20
2022-12-29T21:27:49.642Z,83.53
2022-12-29T21:30:53.796Z,81.22
2022-12-29T21:33:57.699Z,85.50
2022-12-29T21:37:00.337Z,83.60
2022-12-29T21:40:04.226Z,72.90
2022-12-29T21:43:07.302Z,74.30
2022-12-29T21:46:11.489Z,75.72
2022-12-29T21:49:14.399Z,61.22
2022-12-29T21:52:17.070Z,66.88
2022-12-29T21:55:19.660Z,67.33
2022-12-29T21:58:40.932Z,66.38
2022-12-29T22:02:03.944Z,74.63
2022-12-29T22:05:28.076Z,68.75
2022-12-29T22:08:49.345Z,76.88
2022-12-29T22:12:10.953Z,81.10
2022-12-29T22:15:13.647Z,83.55
2022-12-29T22:18:17.702Z,87.72
2022-12-29T22:21:20.515Z,85.55
2022-12-29T22:24:28.969Z,78.28
2022-12-29T22:27:31.709Z,86.83
2022-12-29T22:30:34.406Z,81.20
2022-12-29T22:33:38.425Z,83.50
2022-12-29T22:36:41.025Z,76.90
2022-12-29T22:39:43.712Z,54.63
2022-12-29T22:42:46.372Z,53.73
2022-12-29T22:45:50.097Z,66.40
2022-12-29T22:48:54.115Z,61.85
2022-12-29T22:51:56.892Z,56.30
2022-12-29T22:55:06.503Z,57.80
2022-12-29T22:58:09.583Z,58.70
2022-12-29T23:01:15.006Z,65.32
2022-12-29T23:05:01.828Z,60.03
2022-12-29T23:07:43.094Z,53.03
2022-12-29T23:10:45.716Z,62.63
2022-12-29T23:13:48.503Z,60.50
2022-12-29T23:16:51.296Z,62.33
2022-12-29T23:19:55.399Z,59.33
2022-12-29T23:22:59.164Z,62.03
2022-12-29T23:26:01.833Z,60.33
2022-12-29T23:29:07.160Z,61.70
2022-12-29T23:32:09.837Z,63.08
2022-12-29T23:35:13.980Z,61.85
2022-12-29T23:38:16.710Z,60.42
2022-12-29T23:41:19.450Z,62.33
2022-12-29T23:44:22.085Z,63.40
2022-12-29T23:47:24.767Z,64.30
2022-12-29T23:50:28.792Z,64.03
2022-12-29T23:53:31.934Z,62.05
2022-12-29T23:56:34.584Z,62.30
2022-12-29T23:59:37.282Z,57.80
